createdAt,value
2022-09-23T00:01:08.152Z,16.20
2022-09-23T00:03:37.372Z,16.20
2022-09-23T00:06:07.217Z,16.10
2022-09-23T00:08:35.098Z,16.30
2022-09-23T00:11:11.133Z,16.00
2022-09-23T00:13:39.802Z,16.10
2022-09-23T00:16:09.643Z,16.00
2022-09-23T00:18:36.907Z,16.20
2022-09-23T00:21:10.350Z,16.40
2022-09-23T00:23:38.232Z,16.00
2022-09-23T00:26:07.664Z,15.80
2022-09-23T00:28:35.149Z,16.00
2022-09-23T00:31:08.021Z,15.90
2022-09-23T00:33:35.265Z,16.00
2022-09-23T00:36:04.154Z,16.00
2022-09-23T00:38:31.764Z,15.90
2022-09-23T00:40:59.102Z,16.20
2022-09-23T00:43:45.874Z,16.40
2022-09-23T00:46:22.971Z,16.50
2022-09-23T00:48:55.944Z,16.40
2022-09-23T00:51:25.055Z,16.10
2022-09-23T00:53:53.144Z,16.20
2022-09-23T00:56:22.029Z,15.80
2022-09-23T00:58:49.984Z,15.80
2022-09-23T01:01:17.162Z,15.80
2022-09-23T01:03:45.731Z,15.80
2022-09-23T01:06:13.672Z,15.80
2022-09-23T01:08:42.494Z,15.60
2022-09-23T01:11:35.242Z,15.80
2022-09-23T01:14:20.304Z,16.00
2022-09-23T01:17:05.275Z,15.90
2022-09-23T01:19:32.440Z,15.80
2022-09-23T01:22:14.568Z,15.90
2022-09-23T01:25:43.079Z,16.10
2022-09-23T01:28:18.875Z,16.10
2022-09-23T01:31:09.114Z,16.20
2022-09-23T01:33:46.074Z,16.20
2022-09-23T01:36:30.020Z,16.30
2022-09-23T01:40:01.876Z,16.30
2022-09-23T01:42:55.483Z,16.20
2022-09-23T01:45:24.653Z,16.10
2022-09-23T01:47:56.294Z,16.10
2022-09-23T01:50:54.989Z,16.10
2022-09-23T01:53:32.840Z,15.80
2022-09-23T01:56:05.605Z,15.40
2022-09-23T01:58:46.716Z,15.50
2022-09-23T02:01:19.537Z,15.40
2022-09-23T02:04:15.428Z,15.40
2022-09-23T02:07:24.426Z,15.60
2022-09-23T02:10:04.207Z,15.70
2022-09-23T02:12:38.573Z,15.80
2022-09-23T02:15:15.978Z,15.50
2022-09-23T02:17:56.046Z,15.80
2022-09-23T02:20:32.449Z,15.80
2022-09-23T02:23:03.684Z,15.50
2022-09-23T02:25:39.830Z,15.00
2022-09-23T02:28:14.909Z,14.50
2022-09-23T02:30:49.809Z,14.60
2022-09-23T02:33:43.940Z,14.60
2022-09-23T02:37:11.299Z,14.70
2022-09-23T02:40:27.768Z,14.90
2022-09-23T02:43:00.764Z,15.00
2022-09-23T02:45:27.968Z,15.20
2022-09-23T02:48:04.211Z,15.30
2022-09-23T02:50:32.629Z,15.20
2022-09-23T02:53:01.032Z,15.40
2022-09-23T02:55:33.170Z,15.30
2022-09-23T02:58:01.701Z,15.20
2022-09-23T03:00:38.561Z,14.80
2022-09-23T03:03:27.040Z,14.40
2022-09-23T03:05:57.052Z,14.20
2022-09-23T03:08:53.079Z,14.40
2022-09-23T03:11:21.604Z,14.60
2022-09-23T03:14:17.628Z,14.50
2022-09-23T03:16:50.651Z,14.60
2022-09-23T03:19:40.995Z,14.50
2022-09-23T03:22:15.858Z,14.40
2022-09-23T03:24:44.770Z,14.40
2022-09-23T03:27:16.149Z,14.60
2022-09-23T03:29:47.117Z,14.60
2022-09-23T03:32:16.789Z,14.70
2022-09-23T03:34:46.297Z,14.80
2022-09-23T03:37:33.518Z,15.00
2022-09-23T03:40:15.447Z,14.80
2022-09-23T03:42:42.892Z,14.70
2022-09-23T03:45:13.297Z,14.60
2022-09-23T03:47:40.454Z,14.70
2022-09-23T03:50:07.912Z,14.80
2022-09-23T03:52:35.314Z,14.80
2022-09-23T03:55:02.485Z,14.60
2022-09-23T03:57:29.599Z,14.80
2022-09-23T03:59:56.770Z,14.70
2022-09-23T04:02:24.065Z,14.60
2022-09-23T04:04:51.360Z,14.50
2022-09-23T04:07:18.834Z,14.70
2022-09-23T04:09:46.031Z,14.60
2022-09-23T04:12:15.505Z,14.80
2022-09-23T04:14:43.162Z,14.80
2022-09-23T04:17:10.730Z,14.60
2022-09-23T04:19:37.969Z,14.30
2022-09-23T04:22:07.094Z,14.20
2022-09-23T04:24:34.427Z,14.10
2022-09-23T04:27:01.560Z,14.00
2022-09-23T04:29:28.797Z,14.10
2022-09-23T04:31:56.073Z,14.20
2022-09-23T04:34:23.320Z,14.20
2022-09-23T04:36:50.831Z,14.30
2022-09-23T04:39:18.393Z,14.30
2022-09-23T04:41:45.861Z,14.50
2022-09-23T04:44:13.700Z,14.50
2022-09-23T04:46:47.991Z,14.70
2022-09-23T04:49:15.978Z,14.70
2022-09-23T04:51:43.602Z,14.90
2022-09-23T04:54:12.105Z,14.70
2022-09-23T04:56:39.699Z,14.40
2022-09-23T04:59:07.160Z,14.40
2022-09-23T05:01:36.197Z,14.50
2022-09-23T05:04:06.159Z,13.70
2022-09-23T05:06:34.854Z,13.70
2022-09-23T05:09:03.962Z,14.00
2022-09-23T05:11:31.859Z,14.30
2022-09-23T05:13:59.366Z,14.30
2022-09-23T05:16:27.374Z,14.50
2022-09-23T05:18:54.869Z,14.80
2022-09-23T05:21:23.779Z,14.80
2022-09-23T05:23:56.404Z,14.80
2022-09-23T05:26:27.815Z,14.40
2022-09-23T05:28:56.692Z,14.30
2022-09-23T05:31:26.291Z,14.60
2022-09-23T05:33:58.828Z,14.60
2022-09-23T05:36:27.443Z,14.60
2022-09-23T05:38:56.465Z,13.50
2022-09-23T05:41:24.220Z,13.20
2022-09-23T05:43:52.511Z,13.30
2022-09-23T05:46:23.096Z,13.50
2022-09-23T05:48:50.383Z,13.30
2022-09-23T05:51:20.031Z,12.90
2022-09-23T05:53:47.618Z,12.60
2022-09-23T05:56:16.480Z,12.80
2022-09-23T05:58:43.917Z,13.40
2022-09-23T06:01:12.831Z,12.90
2022-09-23T06:03:40.301Z,12.80
2022-09-23T06:06:10.959Z,12.70
2022-09-23T06:08:38.161Z,13.00
2022-09-23T06:11:08.987Z,13.20
2022-09-23T06:13:39.869Z,13.60
2022-09-23T06:16:12.835Z,13.80
2022-09-23T06:18:44.758Z,14.30
2022-09-23T06:21:18.581Z,15.00
2022-09-23T06:23:46.525Z,15.10
2022-09-23T06:26:17.216Z,15.00
2022-09-23T06:28:45.814Z,15.20
2022-09-23T06:31:16.881Z,15.40
2022-09-23T06:33:45.085Z,15.40
2022-09-23T06:36:17.452Z,15.60
2022-09-23T06:38:51.753Z,16.00
2022-09-23T06:41:20.647Z,15.90
2022-09-23T06:43:48.116Z,16.10
2022-09-23T06:46:17.196Z,16.10
2022-09-23T06:48:46.281Z,16.30
2022-09-23T06:51:21.580Z,16.50
2022-09-23T06:53:49.459Z,16.50
2022-09-23T06:56:19.673Z,16.60
2022-09-23T06:58:46.864Z,16.50
2022-09-23T07:01:16.163Z,16.20
2022-09-23T07:03:44.597Z,16.10
2022-09-23T07:06:11.988Z,16.70
2022-09-23T07:08:42.231Z,16.90
2022-09-23T07:11:12.239Z,16.60
2022-09-23T07:13:41.129Z,16.70
2022-09-23T07:16:09.130Z,16.80
2022-09-23T07:18:37.698Z,16.90
2022-09-23T07:21:12.840Z,16.90
2022-09-23T07:23:39.980Z,17.20
2022-09-23T07:26:07.950Z,17.50
2022-09-23T07:28:36.709Z,17.30
2022-09-23T07:31:07.622Z,17.30
2022-09-23T07:33:36.519Z,17.60
2022-09-23T07:36:13.427Z,17.60
2022-09-23T07:38:45.153Z,17.30
2022-09-23T07:41:15.782Z,17.30
2022-09-23T07:43:44.007Z,17.30
2022-09-23T07:46:15.003Z,17.20
2022-09-23T07:48:42.523Z,17.40
2022-09-23T07:51:18.618Z,17.50
2022-09-23T07:53:49.055Z,17.90
2022-09-23T07:56:17.182Z,18.30
2022-09-23T07:58:44.530Z,18.20
2022-09-23T08:01:12.319Z,17.00
2022-09-23T08:03:40.257Z,16.70
2022-09-23T08:06:12.374Z,17.30
2022-09-23T08:08:43.385Z,17.20
2022-09-23T08:11:11.505Z,17.30
2022-09-23T08:13:38.864Z,17.40
2022-09-23T08:16:06.699Z,17.30
2022-09-23T08:18:34.114Z,18.40
2022-09-23T08:21:01.428Z,17.20
2022-09-23T08:23:33.265Z,17.00
2022-09-23T08:26:02.190Z,17.30
2022-09-23T08:28:29.488Z,17.10
2022-09-23T08:30:57.079Z,17.60
2022-09-23T08:33:24.584Z,18.30
2022-09-23T08:35:52.547Z,18.00
2022-09-23T08:38:20.726Z,17.50
2022-09-23T08:40:49.962Z,16.80
2022-09-23T08:43:28.962Z,16.60
2022-09-23T08:45:59.517Z,17.20
2022-09-23T08:48:42.147Z,17.30
2022-09-23T08:51:22.853Z,17.30
2022-09-23T08:53:50.173Z,16.90
2022-09-23T08:56:22.755Z,18.00
2022-09-23T08:59:16.035Z,18.30
2022-09-23T09:01:50.047Z,18.80
2022-09-23T09:04:35.388Z,18.70
2022-09-23T09:07:34.627Z,18.10
2022-09-23T09:10:24.318Z,18.30
2022-09-23T09:13:07.347Z,18.80
2022-09-23T09:15:44.997Z,18.30
2022-09-23T09:18:21.490Z,17.70
2022-09-23T09:20:57.415Z,17.90
2022-09-23T09:23:44.340Z,17.50
2022-09-23T09:26:22.555Z,17.60
2022-09-23T09:29:17.134Z,17.10
2022-09-23T09:31:51.306Z,18.20
2022-09-23T09:34:26.246Z,18.60
2022-09-23T09:37:07.426Z,17.70
2022-09-23T09:39:35.967Z,18.30
2022-09-23T09:42:04.681Z,18.00
2022-09-23T09:44:50.374Z,18.30
2022-09-23T09:47:32.634Z,17.90
2022-09-23T09:50:09.177Z,18.00
2022-09-23T09:52:43.276Z,18.70
2022-09-23T09:55:13.476Z,19.00
2022-09-23T09:57:50.107Z,19.10
2022-09-23T10:00:37.265Z,18.70
2022-09-23T10:03:13.211Z,19.00
2022-09-23T10:05:46.193Z,19.30
2022-09-23T10:08:27.062Z,19.10
2022-09-23T10:11:07.859Z,19.10
2022-09-23T10:13:35.087Z,19.50
2022-09-23T10:16:03.834Z,19.30
2022-09-23T10:18:40.585Z,19.20
2022-09-23T10:21:15.432Z,19.20
2022-09-23T10:23:45.020Z,19.40
2022-09-23T10:26:13.951Z,18.60
2022-09-23T10:28:48.913Z,18.20
2022-09-23T10:31:26.665Z,19.00
2022-09-23T10:33:57.659Z,18.70
2022-09-23T10:36:25.210Z,18.40
2022-09-23T10:39:22.781Z,19.10
2022-09-23T10:42:16.684Z,19.30
2022-09-23T10:45:17.998Z,19.50
2022-09-23T10:48:03.924Z,20.20
2022-09-23T10:50:41.983Z,20.50
2022-09-23T10:53:56.833Z,19.70
2022-09-23T10:56:36.337Z,20.30
2022-09-23T10:59:06.297Z,20.10
2022-09-23T11:02:05.890Z,21.40
2022-09-23T11:05:04.740Z,20.20
2022-09-23T11:07:37.222Z,19.90
2022-09-23T11:10:29.274Z,19.50
2022-09-23T11:13:19.483Z,20.40
2022-09-23T11:15:58.903Z,21.40
2022-09-23T11:19:01.994Z,21.80
2022-09-23T11:21:45.192Z,20.90
2022-09-23T11:24:34.341Z,20.20
2022-09-23T11:27:19.277Z,20.40
2022-09-23T11:30:15.254Z,20.40
2022-09-23T11:32:56.097Z,20.70
2022-09-23T11:35:23.262Z,21.60
2022-09-23T11:38:13.541Z,20.70
2022-09-23T11:40:45.651Z,22.10
2022-09-23T11:43:25.201Z,22.90
2022-09-23T11:45:58.570Z,22.40
2022-09-23T11:48:43.614Z,22.30
2022-09-23T11:51:32.207Z,22.30
2022-09-23T11:54:07.094Z,22.40
2022-09-23T11:56:47.528Z,22.90
2022-09-23T11:59:40.108Z,22.20
2022-09-23T12:02:21.261Z,22.20
2022-09-23T12:05:02.906Z,20.90
2022-09-23T12:07:56.830Z,22.10
2022-09-23T12:10:45.438Z,21.50
2022-09-23T12:13:20.808Z,21.30
2022-09-23T12:16:13.817Z,22.40
2022-09-23T12:19:08.471Z,21.80
2022-09-23T12:22:09.648Z,21.80
2022-09-23T12:25:10.570Z,22.00
2022-09-23T12:27:44.711Z,22.10
2022-09-23T12:30:21.316Z,22.20
2022-09-23T12:32:48.693Z,21.90
2022-09-23T12:35:42.304Z,22.30
2022-09-23T12:38:26.482Z,23.40
2022-09-23T12:40:55.824Z,23.70
2022-09-23T12:43:35.022Z,24.00
2022-09-23T12:46:25.667Z,24.60
2022-09-23T12:48:59.904Z,24.30
2022-09-23T12:51:29.117Z,23.50
2022-09-23T12:54:05.521Z,22.20
2022-09-23T12:56:42.381Z,22.40
2022-09-23T12:59:25.873Z,22.30
2022-09-23T13:01:53.841Z,22.50
2022-09-23T13:05:03.474Z,22.50
2022-09-23T13:07:34.206Z,21.90
2022-09-23T13:10:41.134Z,22.80
2022-09-23T13:13:35.073Z,20.90
2022-09-23T13:16:45.408Z,20.80
2022-09-23T13:19:59.576Z,21.70
2022-09-23T13:23:05.807Z,22.00
2022-09-23T13:25:54.709Z,22.30
2022-09-23T13:28:44.894Z,21.90
2022-09-23T13:31:17.214Z,22.40
2022-09-23T13:34:23.719Z,21.90
2022-09-23T13:39:41.789Z,22.10
2022-09-23T13:42:31.351Z,22.10
2022-09-23T13:45:02.571Z,22.30
2022-09-23T13:47:35.889Z,22.50
2022-09-23T13:50:03.267Z,22.80
2022-09-23T13:52:40.017Z,22.70
2022-09-23T13:55:37.477Z,22.60
2022-09-23T13:58:22.343Z,22.70
2022-09-23T14:00:50.104Z,23.20
2022-09-23T14:03:30.238Z,23.10
2022-09-23T14:06:02.211Z,22.90
2022-09-23T14:08:30.104Z,23.20
2022-09-23T14:10:59.200Z,23.20
2022-09-23T14:13:35.019Z,23.20
2022-09-23T14:16:04.292Z,23.30
2022-09-23T14:18:40.620Z,23.10
2022-09-23T14:21:34.672Z,22.90
2022-09-23T14:24:17.095Z,22.90
2022-09-23T14:26:50.373Z,23.40
2022-09-23T14:29:20.507Z,23.50
2022-09-23T14:31:56.731Z,23.40
2022-09-23T14:34:48.438Z,23.30
2022-09-23T14:37:57.421Z,23.30
2022-09-23T14:40:30.231Z,23.50
2022-09-23T14:43:17.085Z,23.90
2022-09-23T14:45:52.115Z,23.60
2022-09-23T14:48:30.176Z,23.70
2022-09-23T14:50:59.598Z,23.70
2022-09-23T14:53:40.643Z,23.70
2022-09-23T14:56:08.308Z,23.10
2022-09-23T14:58:51.917Z,22.80
2022-09-23T15:01:41.594Z,23.20
2022-09-23T15:04:24.770Z,22.90
2022-09-23T15:07:02.364Z,22.90
2022-09-23T15:09:36.132Z,23.20
2022-09-23T15:12:17.567Z,22.80
2022-09-23T15:14:50.826Z,22.40
2022-09-23T15:17:44.341Z,22.70
2022-09-23T15:20:32.485Z,22.80
2022-09-23T15:23:04.807Z,22.90
2022-09-23T15:25:41.678Z,22.80
2022-09-23T15:28:12.064Z,22.40
2022-09-23T15:30:42.296Z,22.60
2022-09-23T15:33:17.022Z,22.70
2022-09-23T15:35:47.602Z,22.40
2022-09-23T15:38:18.292Z,22.30
2022-09-23T15:40:54.107Z,22.20
2022-09-23T15:43:24.812Z,22.00
2022-09-23T15:46:06.652Z,21.80
2022-09-23T15:48:43.311Z,21.70
2022-09-23T15:51:14.636Z,21.60
2022-09-23T15:53:42.349Z,21.60
2022-09-23T15:56:10.557Z,21.90
2022-09-23T15:58:43.453Z,22.10
2022-09-23T16:01:30.814Z,22.20
2022-09-23T16:04:06.690Z,22.10
2022-09-23T16:06:35.915Z,21.50
2022-09-23T16:09:03.414Z,21.40
2022-09-23T16:11:31.990Z,21.30
2022-09-23T16:14:00.475Z,21.20
2022-09-23T16:16:27.877Z,21.70
2022-09-23T16:18:55.286Z,21.70
2022-09-23T16:21:25.250Z,21.70
2022-09-23T16:23:53.358Z,21.90
2022-09-23T16:26:24.190Z,22.00
2022-09-23T16:28:52.947Z,21.90
2022-09-23T16:31:21.150Z,21.90
2022-09-23T16:33:50.429Z,21.80
2022-09-23T16:36:31.141Z,21.70
2022-09-23T16:39:00.280Z,21.20
2022-09-23T16:41:31.699Z,21.30
2022-09-23T16:44:00.797Z,21.30
2022-09-23T16:46:29.160Z,21.20
2022-09-23T16:48:57.502Z,21.20
2022-09-23T16:51:38.164Z,21.20
2022-09-23T16:54:11.166Z,21.10
2022-09-23T16:56:41.623Z,20.80
2022-09-23T16:59:09.009Z,20.70
2022-09-23T17:01:55.035Z,20.60
2022-09-23T17:04:22.579Z,20.20
2022-09-23T17:06:51.527Z,20.30
2022-09-23T17:09:20.346Z,20.50
2022-09-23T17:11:57.734Z,19.90
2022-09-23T17:14:25.176Z,20.00
2022-09-23T17:16:52.304Z,20.10
2022-09-23T17:19:19.440Z,20.10
2022-09-23T17:21:46.706Z,20.00
2022-09-23T17:24:13.843Z,20.00
2022-09-23T17:26:41.124Z,20.10
2022-09-23T17:29:10.331Z,20.00
2022-09-23T17:31:39.109Z,19.90
2022-09-23T17:34:06.262Z,19.80
2022-09-23T17:36:33.424Z,19.80
2022-09-23T17:39:00.606Z,19.50
2022-09-23T17:41:28.134Z,19.30
2022-09-23T17:44:00.507Z,19.30
2022-09-23T17:46:29.929Z,19.00
2022-09-23T17:48:57.613Z,19.10
2022-09-23T17:51:25.498Z,19.10
2022-09-23T17:53:52.921Z,19.30
2022-09-23T17:56:22.731Z,19.40
2022-09-23T17:58:50.812Z,19.20
2022-09-23T18:01:23.506Z,19.20
2022-09-23T18:04:01.714Z,19.10
2022-09-23T18:06:33.177Z,19.30
2022-09-23T18:09:01.512Z,19.30
2022-09-23T18:11:30.095Z,19.40
2022-09-23T18:14:08.189Z,19.40
2022-09-23T18:16:37.714Z,19.40
2022-09-23T18:19:05.378Z,19.30
2022-09-23T18:21:35.014Z,19.30
2022-09-23T18:24:28.185Z,19.40
2022-09-23T18:26:50.315Z,19.30
2022-09-23T18:29:18.464Z,19.20
2022-09-23T18:31:47.634Z,19.10
2022-09-23T18:34:16.843Z,19.10
2022-09-23T18:36:44.502Z,19.10
2022-09-23T18:39:11.693Z,19.00
2022-09-23T18:41:39.128Z,19.20
2022-09-23T18:44:06.512Z,18.90
2022-09-23T18:46:33.752Z,18.80
2022-09-23T18:49:19.390Z,18.90
2022-09-23T18:51:57.239Z,18.70
2022-09-23T18:54:27.573Z,18.40
2022-09-23T18:56:55.180Z,18.30
2022-09-23T18:59:27.744Z,18.30
2022-09-23T19:01:55.554Z,18.40
2022-09-23T19:04:24.145Z,18.30
2022-09-23T19:06:51.366Z,18.60
2022-09-23T19:09:19.277Z,18.50
2022-09-23T19:11:46.931Z,18.50
2022-09-23T19:14:14.226Z,18.40
2022-09-23T19:16:41.869Z,18.40
2022-09-23T19:19:09.276Z,18.60
2022-09-23T19:21:37.145Z,18.70
2022-09-23T19:24:06.907Z,18.80
2022-09-23T19:26:39.236Z,19.00
2022-09-23T19:29:08.392Z,18.80
2022-09-23T19:31:40.522Z,18.80
2022-09-23T19:34:13.111Z,18.70
2022-09-23T19:36:42.543Z,18.50
2022-09-23T19:39:22.473Z,18.70
2022-09-23T19:41:50.637Z,18.80
2022-09-23T19:44:19.813Z,18.90
2022-09-23T19:46:55.156Z,18.90
2022-09-23T19:49:24.615Z,19.10
2022-09-23T19:51:52.822Z,19.10
2022-09-23T19:54:20.782Z,19.30
2022-09-23T19:56:49.825Z,19.10
2022-09-23T19:59:31.884Z,19.00
2022-09-23T20:01:59.126Z,19.10
2022-09-23T20:04:26.380Z,19.00
2022-09-23T20:06:53.568Z,19.00
2022-09-23T20:09:20.973Z,19.00
2022-09-23T20:11:48.195Z,18.90
2022-09-23T20:14:15.379Z,19.30
2022-09-23T20:16:42.603Z,19.20
2022-09-23T20:19:10.170Z,19.10
2022-09-23T20:21:37.369Z,19.10
2022-09-23T20:24:06.416Z,19.00
2022-09-23T20:26:52.729Z,18.80
2022-09-23T20:29:19.882Z,18.50
2022-09-23T20:31:47.353Z,18.50
2022-09-23T20:34:15.073Z,18.80
2022-09-23T20:36:42.486Z,19.00
2022-09-23T20:39:10.282Z,19.10
2022-09-23T20:41:39.059Z,19.20
2022-09-23T20:44:09.371Z,19.20
2022-09-23T20:46:36.769Z,19.10
2022-09-23T20:49:04.640Z,19.20
2022-09-23T20:51:33.323Z,19.20
2022-09-23T20:54:00.862Z,19.10
2022-09-23T20:56:29.020Z,19.20
2022-09-23T20:59:00.654Z,19.00
2022-09-23T21:01:28.197Z,18.80
2022-09-23T21:03:55.973Z,18.80
2022-09-23T21:06:25.055Z,18.60
2022-09-23T21:08:55.314Z,18.50
2022-09-23T21:11:22.915Z,18.50
2022-09-23T21:13:52.273Z,18.60
2022-09-23T21:16:24.404Z,18.50
2022-09-23T21:18:52.227Z,18.40
2022-09-23T21:21:21.971Z,18.40
2022-09-23T21:23:50.222Z,18.30
2022-09-23T21:26:20.007Z,18.40
2022-09-23T21:28:52.593Z,18.30
2022-09-23T21:31:25.394Z,18.30
2022-09-23T21:33:54.039Z,18.40
2022-09-23T21:36:21.637Z,18.40
2022-09-23T21:38:49.045Z,18.50
2022-09-23T21:41:17.639Z,18.50
2022-09-23T21:43:45.343Z,18.70
2022-09-23T21:46:15.294Z,18.60
2022-09-23T21:48:43.115Z,18.80
2022-09-23T21:51:14.269Z,18.80
2022-09-23T21:53:41.891Z,18.90
2022-09-23T21:56:11.754Z,18.80
2022-09-23T21:58:40.143Z,18.70
2022-09-23T22:01:09.436Z,18.90
2022-09-23T22:03:37.185Z,18.90
2022-09-23T22:06:07.632Z,19.00
2022-09-23T22:08:41.505Z,19.10
2022-09-23T22:11:29.770Z,19.10
2022-09-23T22:13:57.515Z,19.00
2022-09-23T22:16:25.027Z,18.90
2022-09-23T22:18:55.188Z,18.90
2022-09-23T22:21:23.390Z,18.80
2022-09-23T22:23:54.852Z,18.80
2022-09-23T22:26:21.982Z,19.00
2022-09-23T22:29:07.536Z,19.00
2022-09-23T22:31:53.392Z,19.10
2022-09-23T22:34:48.013Z,19.10
2022-09-23T22:37:08.400Z,19.10
2022-09-23T22:39:35.684Z,19.20
2022-09-23T22:42:03.743Z,18.50
2022-09-23T22:44:31.282Z,18.50
2022-09-23T22:46:59.043Z,18.20
2022-09-23T22:49:26.593Z,18.50
2022-09-23T22:51:53.718Z,18.60
2022-09-23T22:54:22.121Z,18.70
2022-09-23T22:56:50.063Z,18.60
2022-09-23T22:59:17.216Z,18.90
2022-09-23T23:01:44.459Z,18.90
2022-09-23T23:04:12.875Z,19.00
2022-09-23T23:06:41.276Z,18.80
2022-09-23T23:09:12.883Z,18.90
2022-09-23T23:11:42.252Z,18.90
2022-09-23T23:14:10.320Z,18.90
2022-09-23T23:16:37.867Z,19.00
2022-09-23T23:19:09.949Z,18.80
2022-09-23T23:21:37.711Z,18.20
2022-09-23T23:24:06.288Z,18.20
2022-09-23T23:26:34.458Z,18.70
2022-09-23T23:29:01.943Z,18.90
2022-09-23T23:31:32.003Z,18.90
2022-09-23T23:33:59.602Z,18.90
2022-09-23T23:36:26.726Z,19.00
2022-09-23T23:38:53.935Z,18.90
2022-09-23T23:41:22.753Z,19.00
2022-09-23T23:43:55.326Z,18.70
2022-09-23T23:46:25.289Z,19.00
2022-09-23T23:48:53.199Z,18.70
2022-09-23T23:51:20.900Z,18.60
2022-09-23T23:53:48.244Z,18.60
2022-09-23T23:56:20.317Z,18.70
2022-09-23T23:58:47.537Z,18.80
